sensor_id;sensor_type;location;lat;lon;timestamp;P1;durP1;ratioP1;P2;durP2;ratioP2
74749;SDS011;63269;53.330;-6.288;2022-11-20T00:00:52;6.90;;;3.17;;
74749;SDS011;63269;53.330;-6.288;2022-11-20T00:03:18;4.65;;;2.53;;
74749;SDS011;63269;53.330;-6.288;2022-11-20T00:05:43;3.03;;;1.80;;
74749;SDS011;63269;53.330;-6.288;2022-11-20T00:08:09;5.75;;;2.10;;
74749;SDS011;63269;53.330;-6.288;2022-11-20T00:10:38;4.78;;;1.90;;
74749;SDS011;63269;53.330;-6.288;2022-11-20T00:15:30;5.22;;;1.80;;
74749;SDS011;63269;53.330;-6.288;2022-11-20T00:17:56;6.13;;;2.13;;
74749;SDS011;63269;53.330;-6.288;2022-11-20T00:20:22;6.85;;;2.35;;
74749;SDS011;63269;53.330;-6.288;2022-11-20T00:22:47;4.32;;;2.35;;
74749;SDS011;63269;53.330;-6.288;2022-11-20T00:25:13;5.93;;;2.13;;
74749;SDS011;63269;53.330;-6.288;2022-11-20T00:27:38;6.15;;;2.22;;
74749;SDS011;63269;53.330;-6.288;2022-11-20T00:30:04;5.13;;;2.45;;
74749;SDS011;63269;53.330;-6.288;2022-11-20T00:32:30;5.20;;;2.88;;
74749;SDS011;63269;53.330;-6.288;2022-11-20T00:34:55;6.60;;;2.30;;
74749;SDS011;63269;53.330;-6.288;2022-11-20T00:37:21;6.57;;;2.70;;
74749;SDS011;63269;53.330;-6.288;2022-11-20T00:39:46;5.15;;;2.10;;
74749;SDS011;63269;53.330;-6.288;2022-11-20T00:42:12;5.18;;;2.47;;
74749;SDS011;63269;53.330;-6.288;2022-11-20T00:44:37;5.75;;;2.50;;
74749;SDS011;63269;53.330;-6.288;2022-11-20T00:47:03;7.05;;;2.63;;
74749;SDS011;63269;53.330;-6.288;2022-11-20T00:49:28;6.95;;;2.60;;
74749;SDS011;63269;53.330;-6.288;2022-11-20T00:51:54;5.97;;;2.63;;
74749;SDS011;63269;53.330;-6.288;2022-11-20T00:54:19;7.72;;;2.70;;
74749;SDS011;63269;53.330;-6.288;2022-11-20T00:56:44;6.68;;;2.72;;
74749;SDS011;63269;53.330;-6.288;2022-11-20T00:59:10;9.45;;;3.05;;
74749;SDS011;63269;53.330;-6.288;2022-11-20T01:01:36;8.57;;;3.45;;
74749;SDS011;63269;53.330;-6.288;2022-11-20T01:04:02;8.10;;;3.22;;
74749;SDS011;63269;53.330;-6.288;2022-11-20T01:06:35;9.55;;;3.60;;
74749;SDS011;63269;53.330;-6.288;2022-11-20T01:09:10;8.98;;;4.15;;
74749;SDS011;63269;53.330;-6.288;2022-11-20T01:11:37;11.43;;;3.95;;
74749;SDS011;63269;53.330;-6.288;2022-11-20T01:14:06;8.18;;;3.67;;
74749;SDS011;63269;53.330;-6.288;2022-11-20T01:16:40;10.82;;;4.80;;
74749;SDS011;63269;53.330;-6.288;2022-11-20T01:19:09;10.43;;;4.85;;
74749;SDS011;63269;53.330;-6.288;2022-11-20T01:21:37;11.23;;;4.57;;
74749;SDS011;63269;53.330;-6.288;2022-11-20T01:24:04;9.23;;;4.55;;
74749;SDS011;63269;53.330;-6.288;2022-11-20T01:26:33;11.95;;;4.38;;
74749;SDS011;63269;53.330;-6.288;2022-11-20T01:29:00;12.25;;;5.05;;
74749;SDS011;63269;53.330;-6.288;2022-11-20T01:31:29;11.95;;;4.63;;
74749;SDS011;63269;53.330;-6.288;2022-11-20T01:33:59;12.40;;;5.18;;
74749;SDS011;63269;53.330;-6.288;2022-11-20T01:36:29;13.45;;;4.72;;
74749;SDS011;63269;53.330;-6.288;2022-11-20T01:38:58;10.80;;;4.65;;
74749;SDS011;63269;53.330;-6.288;2022-11-20T01:41:25;11.43;;;4.93;;
74749;SDS011;63269;53.330;-6.288;2022-11-20T01:44:12;11.70;;;4.93;;
74749;SDS011;63269;53.330;-6.288;2022-11-20T01:46:40;12.73;;;4.93;;
74749;SDS011;63269;53.330;-6.288;2022-11-20T01:49:18;11.00;;;4.18;;
74749;SDS011;63269;53.330;-6.288;2022-11-20T01:51:49;9.52;;;5.03;;
74749;SDS011;63269;53.330;-6.288;2022-11-20T01:54:19;12.35;;;5.00;;
74749;SDS011;63269;53.330;-6.288;2022-11-20T01:56:50;10.48;;;4.65;;
74749;SDS011;63269;53.330;-6.288;2022-11-20T01:59:19;12.82;;;4.88;;
74749;SDS011;63269;53.330;-6.288;2022-11-20T02:01:47;11.20;;;3.92;;
74749;SDS011;63269;53.330;-6.288;2022-11-20T02:04:12;10.68;;;4.03;;
74749;SDS011;63269;53.330;-6.288;2022-11-20T02:07:22;9.35;;;3.90;;
74749;SDS011;63269;53.330;-6.288;2022-11-20T02:09:29;13.60;;;4.43;;
74749;SDS011;63269;53.330;-6.288;2022-11-20T02:11:55;9.68;;;4.43;;
74749;SDS011;63269;53.330;-6.288;2022-11-20T02:14:21;12.20;;;4.13;;
74749;SDS011;63269;53.330;-6.288;2022-11-20T02:16:48;11.70;;;4.22;;
74749;SDS011;63269;53.330;-6.288;2022-11-20T02:19:28;11.20;;;4.55;;
74749;SDS011;63269;53.330;-6.288;2022-11-20T02:22:07;10.10;;;4.10;;
74749;SDS011;63269;53.330;-6.288;2022-11-20T02:24:48;9.95;;;4.10;;
74749;SDS011;63269;53.330;-6.288;2022-11-20T02:27:15;9.18;;;4.07;;
74749;SDS011;63269;53.330;-6.288;2022-11-20T02:32:19;9.07;;;3.65;;
74749;SDS011;63269;53.330;-6.288;2022-11-20T02:37:11;9.75;;;3.75;;
74749;SDS011;63269;53.330;-6.288;2022-11-20T02:39:37;10.15;;;3.83;;
74749;SDS011;63269;53.330;-6.288;2022-11-20T02:42:03;10.60;;;3.63;;
74749;SDS011;63269;53.330;-6.288;2022-11-20T02:44:28;10.30;;;3.45;;
74749;SDS011;63269;53.330;-6.288;2022-11-20T02:46:56;9.73;;;3.47;;
74749;SDS011;63269;53.330;-6.288;2022-11-20T02:49:22;9.85;;;4.45;;
74749;SDS011;63269;53.330;-6.288;2022-11-20T02:51:47;9.02;;;3.55;;
74749;SDS011;63269;53.330;-6.288;2022-11-20T02:54:13;13.25;;;4.43;;
74749;SDS011;63269;53.330;-6.288;2022-11-20T02:56:38;11.35;;;3.65;;
74749;SDS011;63269;53.330;-6.288;2022-11-20T02:59:04;10.00;;;3.90;;
74749;SDS011;63269;53.330;-6.288;2022-11-20T03:01:29;13.13;;;3.58;;
74749;SDS011;63269;53.330;-6.288;2022-11-20T03:03:55;9.05;;;3.22;;
74749;SDS011;63269;53.330;-6.288;2022-11-20T03:06:21;9.75;;;3.42;;
74749;SDS011;63269;53.330;-6.288;2022-11-20T03:08:46;9.95;;;3.05;;
74749;SDS011;63269;53.330;-6.288;2022-11-20T03:11:12;9.70;;;3.58;;
74749;SDS011;63269;53.330;-6.288;2022-11-20T03:13:37;9.20;;;3.40;;
74749;SDS011;63269;53.330;-6.288;2022-11-20T03:16:10;7.07;;;2.78;;
74749;SDS011;63269;53.330;-6.288;2022-11-20T03:18:41;10.48;;;3.30;;
74749;SDS011;63269;53.330;-6.288;2022-11-20T03:21:07;6.78;;;2.97;;
74749;SDS011;63269;53.330;-6.288;2022-11-20T03:23:35;9.65;;;3.25;;
74749;SDS011;63269;53.330;-6.288;2022-11-20T03:28:46;7.63;;;2.38;;
74749;SDS011;63269;53.330;-6.288;2022-11-20T03:31:14;7.35;;;2.80;;
74749;SDS011;63269;53.330;-6.288;2022-11-20T03:33:41;10.98;;;3.30;;
74749;SDS011;63269;53.330;-6.288;2022-11-20T03:36:08;10.20;;;3.53;;
74749;SDS011;63269;53.330;-6.288;2022-11-20T03:38:36;8.05;;;2.85;;
74749;SDS011;63269;53.330;-6.288;2022-11-20T03:41:03;11.20;;;3.03;;
74749;SDS011;63269;53.330;-6.288;2022-11-20T03:43:30;9.38;;;2.95;;
74749;SDS011;63269;53.330;-6.288;2022-11-20T03:45:56;9.50;;;3.42;;
74749;SDS011;63269;53.330;-6.288;2022-11-20T03:48:21;10.10;;;3.25;;
74749;SDS011;63269;53.330;-6.288;2022-11-20T03:50:47;11.63;;;3.20;;
74749;SDS011;63269;53.330;-6.288;2022-11-20T03:53:13;9.20;;;2.70;;
74749;SDS011;63269;53.330;-6.288;2022-11-20T03:55:39;7.22;;;2.78;;
74749;SDS011;63269;53.330;-6.288;2022-11-20T03:58:04;6.78;;;2.53;;
74749;SDS011;63269;53.330;-6.288;2022-11-20T04:00:30;7.95;;;2.80;;
74749;SDS011;63269;53.330;-6.288;2022-11-20T04:02:59;7.57;;;2.55;;
74749;SDS011;63269;53.330;-6.288;2022-11-20T04:05:26;9.88;;;3.28;;
74749;SDS011;63269;53.330;-6.288;2022-11-20T04:07:51;7.45;;;2.33;;
74749;SDS011;63269;53.330;-6.288;2022-11-20T04:10:17;10.00;;;3.33;;
74749;SDS011;63269;53.330;-6.288;2022-11-20T04:12:42;6.20;;;2.40;;
74749;SDS011;63269;53.330;-6.288;2022-11-20T04:15:08;7.57;;;2.60;;
74749;SDS011;63269;53.330;-6.288;2022-11-20T04:17:34;9.20;;;2.88;;
74749;SDS011;63269;53.330;-6.288;2022-11-20T04:19:59;7.63;;;2.67;;
74749;SDS011;63269;53.330;-6.288;2022-11-20T04:22:25;7.82;;;2.75;;
74749;SDS011;63269;53.330;-6.288;2022-11-20T04:24:50;7.28;;;2.45;;
74749;SDS011;63269;53.330;-6.288;2022-11-20T04:27:15;7.82;;;2.53;;
74749;SDS011;63269;53.330;-6.288;2022-11-20T04:29:41;7.82;;;2.22;;
74749;SDS011;63269;53.330;-6.288;2022-11-20T04:32:06;6.85;;;2.08;;
74749;SDS011;63269;53.330;-6.288;2022-11-20T04:34:32;6.55;;;2.35;;
74749;SDS011;63269;53.330;-6.288;2022-11-20T04:36:57;8.63;;;2.38;;
74749;SDS011;63269;53.330;-6.288;2022-11-20T04:39:23;8.90;;;2.83;;
74749;SDS011;63269;53.330;-6.288;2022-11-20T04:41:48;6.95;;;2.30;;
74749;SDS011;63269;53.330;-6.288;2022-11-20T04:44:33;6.93;;;2.63;;
74749;SDS011;63269;53.330;-6.288;2022-11-20T04:46:59;6.18;;;2.13;;
74749;SDS011;63269;53.330;-6.288;2022-11-20T04:49:24;7.25;;;2.22;;
74749;SDS011;63269;53.330;-6.288;2022-11-20T04:51:52;8.20;;;2.97;;
74749;SDS011;63269;53.330;-6.288;2022-11-20T04:54:18;6.13;;;2.30;;
74749;SDS011;63269;53.330;-6.288;2022-11-20T04:56:46;6.65;;;2.03;;
74749;SDS011;63269;53.330;-6.288;2022-11-20T04:59:12;6.38;;;2.22;;
74749;SDS011;63269;53.330;-6.288;2022-11-20T05:01:38;9.32;;;2.67;;
74749;SDS011;63269;53.330;-6.288;2022-11-20T05:04:03;6.57;;;2.00;;
74749;SDS011;63269;53.330;-6.288;2022-11-20T05:06:29;6.85;;;2.22;;
74749;SDS011;63269;53.330;-6.288;2022-11-20T05:08:54;6.60;;;1.98;;
74749;SDS011;63269;53.330;-6.288;2022-11-20T05:11:20;7.70;;;2.13;;
74749;SDS011;63269;53.330;-6.288;2022-11-20T05:13:46;5.63;;;1.92;;
74749;SDS011;63269;53.330;-6.288;2022-11-20T05:16:12;6.32;;;2.00;;
74749;SDS011;63269;53.330;-6.288;2022-11-20T05:18:43;7.65;;;2.83;;
74749;SDS011;63269;53.330;-6.288;2022-11-20T05:21:09;8.25;;;2.38;;
74749;SDS011;63269;53.330;-6.288;2022-11-20T05:23:35;6.85;;;2.05;;
74749;SDS011;63269;53.330;-6.288;2022-11-20T05:26:01;5.53;;;1.70;;
74749;SDS011;63269;53.330;-6.288;2022-11-20T05:28:27;7.88;;;2.58;;
74749;SDS011;63269;53.330;-6.288;2022-11-20T05:30:54;6.07;;;2.13;;
74749;SDS011;63269;53.330;-6.288;2022-11-20T05:33:20;6.45;;;2.03;;
74749;SDS011;63269;53.330;-6.288;2022-11-20T05:35:46;5.95;;;2.25;;
74749;SDS011;63269;53.330;-6.288;2022-11-20T05:38:11;5.75;;;2.20;;
74749;SDS011;63269;53.330;-6.288;2022-11-20T05:40:36;5.45;;;1.90;;
74749;SDS011;63269;53.330;-6.288;2022-11-20T05:43:02;7.05;;;2.20;;
74749;SDS011;63269;53.330;-6.288;2022-11-20T05:45:27;6.90;;;2.03;;
74749;SDS011;63269;53.330;-6.288;2022-11-20T05:47:53;4.55;;;1.77;;
74749;SDS011;63269;53.330;-6.288;2022-11-20T05:50:22;5.78;;;1.77;;
74749;SDS011;63269;53.330;-6.288;2022-11-20T05:52:47;3.80;;;1.60;;
74749;SDS011;63269;53.330;-6.288;2022-11-20T05:55:12;4.93;;;1.60;;
74749;SDS011;63269;53.330;-6.288;2022-11-20T05:57:38;5.40;;;1.88;;
74749;SDS011;63269;53.330;-6.288;2022-11-20T06:00:03;4.82;;;1.80;;
74749;SDS011;63269;53.330;-6.288;2022-11-20T06:02:29;5.38;;;2.50;;
74749;SDS011;63269;53.330;-6.288;2022-11-20T06:04:55;5.97;;;1.73;;
74749;SDS011;63269;53.330;-6.288;2022-11-20T06:07:20;5.05;;;1.90;;
74749;SDS011;63269;53.330;-6.288;2022-11-20T06:09:45;4.57;;;1.83;;
74749;SDS011;63269;53.330;-6.288;2022-11-20T06:12:11;5.88;;;1.83;;
74749;SDS011;63269;53.330;-6.288;2022-11-20T06:14:36;3.90;;;1.40;;
74749;SDS011;63269;53.330;-6.288;2022-11-20T06:17:02;4.88;;;1.50;;
74749;SDS011;63269;53.330;-6.288;2022-11-20T06:19:27;5.15;;;1.58;;
74749;SDS011;63269;53.330;-6.288;2022-11-20T06:21:52;4.82;;;1.70;;
74749;SDS011;63269;53.330;-6.288;2022-11-20T06:24:18;7.13;;;2.00;;
74749;SDS011;63269;53.330;-6.288;2022-11-20T06:26:43;4.45;;;1.30;;
74749;SDS011;63269;53.330;-6.288;2022-11-20T06:29:09;6.00;;;1.63;;
74749;SDS011;63269;53.330;-6.288;2022-11-20T06:31:35;5.70;;;1.45;;
74749;SDS011;63269;53.330;-6.288;2022-11-20T06:34:03;5.68;;;1.60;;
74749;SDS011;63269;53.330;-6.288;2022-11-20T06:36:30;3.20;;;1.30;;
74749;SDS011;63269;53.330;-6.288;2022-11-20T06:38:55;3.50;;;1.75;;
74749;SDS011;63269;53.330;-6.288;2022-11-20T06:41:21;6.28;;;1.48;;
74749;SDS011;63269;53.330;-6.288;2022-11-20T06:43:47;5.32;;;1.60;;
74749;SDS011;63269;53.330;-6.288;2022-11-20T06:46:13;4.55;;;1.77;;
74749;SDS011;63269;53.330;-6.288;2022-11-20T06:48:42;4.25;;;1.42;;
74749;SDS011;63269;53.330;-6.288;2022-11-20T06:51:08;5.72;;;1.90;;
74749;SDS011;63269;53.330;-6.288;2022-11-20T06:53:34;5.35;;;1.30;;
74749;SDS011;63269;53.330;-6.288;2022-11-20T06:56:00;7.38;;;1.65;;
74749;SDS011;63269;53.330;-6.288;2022-11-20T06:58:26;5.70;;;1.25;;
74749;SDS011;63269;53.330;-6.288;2022-11-20T07:00:53;4.50;;;1.42;;
74749;SDS011;63269;53.330;-6.288;2022-11-20T07:03:19;4.38;;;1.80;;
74749;SDS011;63269;53.330;-6.288;2022-11-20T07:05:44;10.35;;;1.70;;
74749;SDS011;63269;53.330;-6.288;2022-11-20T07:08:11;4.80;;;1.30;;
74749;SDS011;63269;53.330;-6.288;2022-11-20T07:10:37;4.72;;;1.40;;
74749;SDS011;63269;53.330;-6.288;2022-11-20T07:13:03;4.88;;;1.30;;
74749;SDS011;63269;53.330;-6.288;2022-11-20T07:15:28;4.43;;;1.30;;
74749;SDS011;63269;53.330;-6.288;2022-11-20T07:17:54;5.03;;;1.52;;
74749;SDS011;63269;53.330;-6.288;2022-11-20T07:20:19;3.33;;;1.27;;
74749;SDS011;63269;53.330;-6.288;2022-11-20T07:22:45;4.30;;;1.50;;
74749;SDS011;63269;53.330;-6.288;2022-11-20T07:25:10;4.53;;;1.30;;
74749;SDS011;63269;53.330;-6.288;2022-11-20T07:27:36;3.45;;;1.23;;
74749;SDS011;63269;53.330;-6.288;2022-11-20T07:30:02;4.80;;;1.40;;
74749;SDS011;63269;53.330;-6.288;2022-11-20T07:32:29;4.38;;;1.25;;
74749;SDS011;63269;53.330;-6.288;2022-11-20T07:34:54;6.25;;;1.38;;
74749;SDS011;63269;53.330;-6.288;2022-11-20T07:37:20;5.13;;;1.35;;
74749;SDS011;63269;53.330;-6.288;2022-11-20T07:39:45;4.28;;;1.50;;
74749;SDS011;63269;53.330;-6.288;2022-11-20T07:42:12;3.17;;;1.23;;
74749;SDS011;63269;53.330;-6.288;2022-11-20T07:44:37;5.18;;;1.60;;
74749;SDS011;63269;53.330;-6.288;2022-11-20T07:47:03;3.15;;;1.10;;
74749;SDS011;63269;53.330;-6.288;2022-11-20T07:49:29;4.38;;;1.30;;
74749;SDS011;63269;53.330;-6.288;2022-11-20T07:51:54;3.00;;;1.00;;
74749;SDS011;63269;53.330;-6.288;2022-11-20T07:54:20;4.97;;;1.35;;
74749;SDS011;63269;53.330;-6.288;2022-11-20T07:56:46;6.93;;;2.03;;
74749;SDS011;63269;53.330;-6.288;2022-11-20T07:59:12;3.55;;;1.10;;
74749;SDS011;63269;53.330;-6.288;2022-11-20T08:01:38;2.97;;;1.10;;
74749;SDS011;63269;53.330;-6.288;2022-11-20T08:04:04;5.07;;;1.30;;
74749;SDS011;63269;53.330;-6.288;2022-11-20T08:06:31;4.00;;;1.40;;
74749;SDS011;63269;53.330;-6.288;2022-11-20T08:08:56;4.80;;;1.35;;
74749;SDS011;63269;53.330;-6.288;2022-11-20T08:11:22;3.25;;;1.40;;
74749;SDS011;63269;53.330;-6.288;2022-11-20T08:14:06;5.18;;;1.48;;
74749;SDS011;63269;53.330;-6.288;2022-11-20T08:16:43;4.00;;;1.35;;
74749;SDS011;63269;53.330;-6.288;2022-11-20T08:19:11;2.05;;;0.90;;
74749;SDS011;63269;53.330;-6.288;2022-11-20T08:21:41;5.30;;;1.65;;
74749;SDS011;63269;53.330;-6.288;2022-11-20T08:24:07;3.42;;;1.23;;
74749;SDS011;63269;53.330;-6.288;2022-11-20T08:26:35;4.00;;;1.38;;
74749;SDS011;63269;53.330;-6.288;2022-11-20T08:29:02;5.55;;;1.73;;
74749;SDS011;63269;53.330;-6.288;2022-11-20T08:31:28;4.20;;;1.77;;
74749;SDS011;63269;53.330;-6.288;2022-11-20T08:33:54;6.18;;;1.70;;
74749;SDS011;63269;53.330;-6.288;2022-11-20T08:36:20;3.90;;;1.40;;
74749;SDS011;63269;53.330;-6.288;2022-11-20T08:38:47;6.47;;;1.70;;
74749;SDS011;63269;53.330;-6.288;2022-11-20T08:41:13;4.85;;;1.30;;
74749;SDS011;63269;53.330;-6.288;2022-11-20T08:43:56;3.22;;;1.05;;
74749;SDS011;63269;53.330;-6.288;2022-11-20T08:46:24;4.22;;;1.50;;
74749;SDS011;63269;53.330;-6.288;2022-11-20T08:48:50;4.10;;;1.40;;
74749;SDS011;63269;53.330;-6.288;2022-11-20T08:51:16;4.15;;;1.20;;
74749;SDS011;63269;53.330;-6.288;2022-11-20T08:53:41;4.65;;;1.50;;
74749;SDS011;63269;53.330;-6.288;2022-11-20T08:56:07;5.13;;;1.27;;
74749;SDS011;63269;53.330;-6.288;2022-11-20T08:58:34;6.07;;;2.05;;
74749;SDS011;63269;53.330;-6.288;2022-11-20T09:01:00;3.83;;;1.40;;
74749;SDS011;63269;53.330;-6.288;2022-11-20T09:03:25;4.97;;;1.40;;
74749;SDS011;63269;53.330;-6.288;2022-11-20T09:05:56;4.80;;;1.25;;
74749;SDS011;63269;53.330;-6.288;2022-11-20T09:08:25;4.82;;;1.65;;
74749;SDS011;63269;53.330;-6.288;2022-11-20T09:10:51;4.78;;;1.40;;
74749;SDS011;63269;53.330;-6.288;2022-11-20T09:13:17;4.35;;;1.40;;
74749;SDS011;63269;53.330;-6.288;2022-11-20T09:15:43;3.67;;;1.20;;
74749;SDS011;63269;53.330;-6.288;2022-11-20T09:18:08;3.70;;;0.73;;
74749;SDS011;63269;53.330;-6.288;2022-11-20T09:20:34;5.20;;;1.63;;
74749;SDS011;63269;53.330;-6.288;2022-11-20T09:22:59;3.78;;;1.35;;
74749;SDS011;63269;53.330;-6.288;2022-11-20T09:25:24;4.55;;;1.20;;
74749;SDS011;63269;53.330;-6.288;2022-11-20T09:27:59;4.57;;;1.63;;
74749;SDS011;63269;53.330;-6.288;2022-11-20T09:30:25;5.18;;;1.65;;
74749;SDS011;63269;53.330;-6.288;2022-11-20T09:32:51;4.65;;;1.85;;
74749;SDS011;63269;53.330;-6.288;2022-11-20T09:35:17;5.18;;;1.50;;
74749;SDS011;63269;53.330;-6.288;2022-11-20T09:37:43;4.78;;;1.08;;
74749;SDS011;63269;53.330;-6.288;2022-11-20T09:40:17;4.63;;;1.20;;
74749;SDS011;63269;53.330;-6.288;2022-11-20T09:51:28;5.03;;;1.20;;
74749;SDS011;63269;53.330;-6.288;2022-11-20T09:54:00;3.38;;;0.90;;
74749;SDS011;63269;53.330;-6.288;2022-11-20T09:56:50;5.90;;;1.33;;
74749;SDS011;63269;53.330;-6.288;2022-11-20T09:59:29;6.88;;;1.70;;
74749;SDS011;63269;53.330;-6.288;2022-11-20T10:02:52;3.53;;;1.52;;
74749;SDS011;63269;53.330;-6.288;2022-11-20T10:05:01;3.38;;;1.13;;
74749;SDS011;63269;53.330;-6.288;2022-11-20T10:07:35;4.72;;;1.30;;
74749;SDS011;63269;53.330;-6.288;2022-11-20T10:10:02;4.25;;;1.45;;
74749;SDS011;63269;53.330;-6.288;2022-11-20T10:12:35;5.18;;;1.38;;
74749;SDS011;63269;53.330;-6.288;2022-11-20T10:31:36;3.80;;;1.30;;
74749;SDS011;63269;53.330;-6.288;2022-11-20T10:34:05;3.40;;;1.08;;
74749;SDS011;63269;53.330;-6.288;2022-11-20T10:36:43;3.55;;;1.67;;
74749;SDS011;63269;53.330;-6.288;2022-11-20T10:41:46;2.60;;;1.02;;
74749;SDS011;63269;53.330;-6.288;2022-11-20T10:44:36;3.03;;;1.00;;
74749;SDS011;63269;53.330;-6.288;2022-11-20T10:47:20;2.25;;;0.90;;
74749;SDS011;63269;53.330;-6.288;2022-11-20T10:49:48;2.90;;;1.00;;
74749;SDS011;63269;53.330;-6.288;2022-11-20T11:00:37;3.60;;;1.05;;
74749;SDS011;63269;53.330;-6.288;2022-11-20T11:03:02;2.67;;;1.23;;
74749;SDS011;63269;53.330;-6.288;2022-11-20T11:05:48;2.67;;;1.20;;
74749;SDS011;63269;53.330;-6.288;2022-11-20T11:08:19;2.25;;;0.80;;
74749;SDS011;63269;53.330;-6.288;2022-11-20T11:10:57;1.77;;;0.73;;
74749;SDS011;63269;53.330;-6.288;2022-11-20T11:13:30;4.07;;;1.60;;
74749;SDS011;63269;53.330;-6.288;2022-11-20T11:15:56;3.30;;;1.10;;
74749;SDS011;63269;53.330;-6.288;2022-11-20T11:18:25;3.40;;;1.00;;
74749;SDS011;63269;53.330;-6.288;2022-11-20T11:20:52;4.03;;;1.13;;
74749;SDS011;63269;53.330;-6.288;2022-11-20T11:26:01;3.42;;;1.45;;
74749;SDS011;63269;53.330;-6.288;2022-11-20T11:28:28;1.65;;;0.80;;
74749;SDS011;63269;53.330;-6.288;2022-11-20T11:30:54;2.88;;;0.98;;
74749;SDS011;63269;53.330;-6.288;2022-11-20T11:35:54;1.98;;;0.70;;
74749;SDS011;63269;53.330;-6.288;2022-11-20T11:38:34;1.35;;;0.60;;
74749;SDS011;63269;53.330;-6.288;2022-11-20T11:41:02;3.08;;;0.70;;
74749;SDS011;63269;53.330;-6.288;2022-11-20T11:43:30;3.05;;;1.00;;
74749;SDS011;63269;53.330;-6.288;2022-11-20T11:51:32;1.38;;;0.60;;
74749;SDS011;63269;53.330;-6.288;2022-11-20T11:53:58;2.00;;;0.60;;
74749;SDS011;63269;53.330;-6.288;2022-11-20T11:56:25;1.23;;;0.50;;
74749;SDS011;63269;53.330;-6.288;2022-11-20T11:58:53;2.25;;;0.70;;
74749;SDS011;63269;53.330;-6.288;2022-11-20T12:01:28;1.20;;;0.55;;
74749;SDS011;63269;53.330;-6.288;2022-11-20T12:06:26;1.42;;;0.60;;
74749;SDS011;63269;53.330;-6.288;2022-11-20T12:11:38;1.42;;;0.65;;
74749;SDS011;63269;53.330;-6.288;2022-11-20T12:16:51;1.67;;;0.50;;
74749;SDS011;63269;53.330;-6.288;2022-11-20T12:19:18;3.53;;;0.77;;
74749;SDS011;63269;53.330;-6.288;2022-11-20T12:30:17;1.48;;;0.65;;
74749;SDS011;63269;53.330;-6.288;2022-11-20T12:33:01;1.10;;;0.47;;
74749;SDS011;63269;53.330;-6.288;2022-11-20T12:55:53;1.38;;;0.40;;
74749;SDS011;63269;53.330;-6.288;2022-11-20T12:58:42;1.67;;;0.73;;
74749;SDS011;63269;53.330;-6.288;2022-11-20T13:04:02;1.85;;;1.35;;
74749;SDS011;63269;53.330;-6.288;2022-11-20T13:06:37;1.30;;;0.43;;
74749;SDS011;63269;53.330;-6.288;2022-11-20T13:09:08;2.45;;;0.50;;
74749;SDS011;63269;53.330;-6.288;2022-11-20T13:11:48;1.50;;;0.55;;
74749;SDS011;63269;53.330;-6.288;2022-11-20T13:17:35;0.98;;;0.40;;
74749;SDS011;63269;53.330;-6.288;2022-11-20T13:20:02;1.75;;;0.50;;
74749;SDS011;63269;53.330;-6.288;2022-11-20T13:25:21;2.47;;;0.67;;
74749;SDS011;63269;53.330;-6.288;2022-11-20T13:28:31;1.27;;;0.50;;
74749;SDS011;63269;53.330;-6.288;2022-11-20T13:30:53;1.00;;;0.60;;
74749;SDS011;63269;53.330;-6.288;2022-11-20T13:33:30;1.10;;;0.47;;
74749;SDS011;63269;53.330;-6.288;2022-11-20T13:36:02;2.80;;;0.70;;
74749;SDS011;63269;53.330;-6.288;2022-11-20T13:40:57;1.98;;;0.50;;
74749;SDS011;63269;53.330;-6.288;2022-11-20T13:43:44;1.40;;;0.60;;
74749;SDS011;63269;53.330;-6.288;2022-11-20T13:46:12;2.10;;;0.80;;
74749;SDS011;63269;53.330;-6.288;2022-11-20T13:48:39;2.92;;;0.60;;
74749;SDS011;63269;53.330;-6.288;2022-11-20T14:02:03;1.80;;;0.68;;
74749;SDS011;63269;53.330;-6.288;2022-11-20T14:04:38;1.55;;;0.70;;
74749;SDS011;63269;53.330;-6.288;2022-11-20T14:07:09;1.30;;;0.68;;
74749;SDS011;63269;53.330;-6.288;2022-11-20T14:09:36;1.50;;;0.70;;
74749;SDS011;63269;53.330;-6.288;2022-11-20T14:12:02;3.05;;;0.68;;
74749;SDS011;63269;53.330;-6.288;2022-11-20T14:14:29;2.78;;;0.90;;
74749;SDS011;63269;53.330;-6.288;2022-11-20T14:17:06;2.50;;;1.08;;
74749;SDS011;63269;53.330;-6.288;2022-11-20T14:19:32;5.00;;;1.50;;
74749;SDS011;63269;53.330;-6.288;2022-11-20T14:22:18;2.83;;;1.27;;
74749;SDS011;63269;53.330;-6.288;2022-11-20T14:24:48;2.92;;;1.42;;
74749;SDS011;63269;53.330;-6.288;2022-11-20T14:27:26;3.83;;;1.77;;
74749;SDS011;63269;53.330;-6.288;2022-11-20T14:29:52;3.50;;;1.50;;
74749;SDS011;63269;53.330;-6.288;2022-11-20T14:32:19;3.28;;;1.73;;
74749;SDS011;63269;53.330;-6.288;2022-11-20T14:34:47;3.45;;;1.67;;
74749;SDS011;63269;53.330;-6.288;2022-11-20T14:37:24;3.85;;;1.50;;
74749;SDS011;63269;53.330;-6.288;2022-11-20T14:39:52;3.92;;;1.42;;
74749;SDS011;63269;53.330;-6.288;2022-11-20T14:44:46;4.47;;;1.40;;
74749;SDS011;63269;53.330;-6.288;2022-11-20T14:47:14;2.95;;;1.23;;
74749;SDS011;63269;53.330;-6.288;2022-11-20T14:49:44;2.25;;;1.55;;
74749;SDS011;63269;53.330;-6.288;2022-11-20T14:52:20;4.05;;;1.55;;
74749;SDS011;63269;53.330;-6.288;2022-11-20T14:54:51;4.38;;;1.92;;
74749;SDS011;63269;53.330;-6.288;2022-11-20T14:57:25;4.35;;;1.23;;
74749;SDS011;63269;53.330;-6.288;2022-11-20T15:00:03;2.75;;;1.38;;
74749;SDS011;63269;53.330;-6.288;2022-11-20T15:02:31;2.63;;;1.27;;
74749;SDS011;63269;53.330;-6.288;2022-11-20T15:04:57;2.60;;;1.08;;
74749;SDS011;63269;53.330;-6.288;2022-11-20T15:07:25;3.00;;;1.52;;
74749;SDS011;63269;53.330;-6.288;2022-11-20T15:15:43;2.72;;;1.20;;
74749;SDS011;63269;53.330;-6.288;2022-11-20T15:18:11;2.90;;;1.02;;
74749;SDS011;63269;53.330;-6.288;2022-11-20T15:20:39;2.35;;;1.10;;
74749;SDS011;63269;53.330;-6.288;2022-11-20T15:23:13;1.65;;;1.00;;
74749;SDS011;63269;53.330;-6.288;2022-11-20T15:25:43;4.03;;;1.00;;
74749;SDS011;63269;53.330;-6.288;2022-11-20T15:28:29;2.53;;;1.00;;
74749;SDS011;63269;53.330;-6.288;2022-11-20T15:30:56;2.17;;;0.90;;
74749;SDS011;63269;53.330;-6.288;2022-11-20T15:33:22;3.17;;;0.98;;
74749;SDS011;63269;53.330;-6.288;2022-11-20T15:35:47;3.38;;;1.13;;
74749;SDS011;63269;53.330;-6.288;2022-11-20T15:38:12;3.05;;;1.45;;
74749;SDS011;63269;53.330;-6.288;2022-11-20T15:40:38;2.45;;;1.00;;
74749;SDS011;63269;53.330;-6.288;2022-11-20T15:43:03;2.20;;;1.20;;
74749;SDS011;63269;53.330;-6.288;2022-11-20T15:45:34;2.35;;;1.10;;
74749;SDS011;63269;53.330;-6.288;2022-11-20T15:48:03;2.92;;;1.23;;
74749;SDS011;63269;53.330;-6.288;2022-11-20T15:50:34;2.83;;;1.30;;
74749;SDS011;63269;53.330;-6.288;2022-11-20T15:53:03;1.92;;;1.05;;
74749;SDS011;63269;53.330;-6.288;2022-11-20T15:55:29;2.85;;;1.63;;
74749;SDS011;63269;53.330;-6.288;2022-11-20T15:57:55;2.90;;;1.00;;
74749;SDS011;63269;53.330;-6.288;2022-11-20T16:00:20;2.03;;;1.10;;
74749;SDS011;63269;53.330;-6.288;2022-11-20T16:02:46;3.08;;;1.27;;
74749;SDS011;63269;53.330;-6.288;2022-11-20T16:05:11;2.95;;;1.00;;
74749;SDS011;63269;53.330;-6.288;2022-11-20T16:07:38;2.60;;;1.10;;
74749;SDS011;63269;53.330;-6.288;2022-11-20T16:10:04;1.92;;;0.85;;
74749;SDS011;63269;53.330;-6.288;2022-11-20T16:12:29;3.22;;;1.33;;
74749;SDS011;63269;53.330;-6.288;2022-11-20T16:15:14;2.00;;;1.13;;
74749;SDS011;63269;53.330;-6.288;2022-11-20T16:18:18;2.50;;;1.08;;
74749;SDS011;63269;53.330;-6.288;2022-11-20T16:20:46;2.10;;;1.08;;
74749;SDS011;63269;53.330;-6.288;2022-11-20T16:23:13;2.05;;;1.20;;
74749;SDS011;63269;53.330;-6.288;2022-11-20T16:25:40;2.28;;;0.93;;
74749;SDS011;63269;53.330;-6.288;2022-11-20T16:28:06;1.88;;;1.15;;
74749;SDS011;63269;53.330;-6.288;2022-11-20T16:30:32;2.00;;;0.93;;
74749;SDS011;63269;53.330;-6.288;2022-11-20T16:32:58;1.77;;;0.98;;
74749;SDS011;63269;53.330;-6.288;2022-11-20T16:35:28;1.48;;;0.90;;
74749;SDS011;63269;53.330;-6.288;2022-11-20T16:37:57;3.05;;;1.75;;
74749;SDS011;63269;53.330;-6.288;2022-11-20T16:40:23;2.35;;;1.10;;
74749;SDS011;63269;53.330;-6.288;2022-11-20T16:42:49;1.40;;;0.90;;
74749;SDS011;63269;53.330;-6.288;2022-11-20T16:45:15;2.28;;;1.10;;